Time;durP1;ratioP1;P1;durP2;ratioP2;P2;SDS_P1;SDS_P2;PMS_P1;PMS_P2;Temp;Humidity;BMP_temperature;BMP_pressure;BME280_temperature;BME280_humidity;BME280_pressure;Samples;Min_cycle;Max_cycle;Signal;HPM_P1;HPM_P2
2022/12/31 00:01:01;;;;;;;4.95;2.75;;;12.70;99.90;;;;;;5012405;28;20490;-79
2022/12/31 00:03:27;;;;;;;5.00;2.90;;;12.70;99.90;;;;;;4996026;28;20045;-80
2022/12/31 00:05:53;;;;;;;4.80;2.65;;;12.70;99.90;;;;;;4995677;28;20046;-80
2022/12/31 00:08:18;;;;;;;6.03;2.33;;;12.70;99.90;;;;;;4995981;28;20026;-80
2022/12/31 00:10:44;;;;;;;5.53;2.50;;;12.70;99.90;;;;;;4979744;28;20022;-79
2022/12/31 00:13:11;;;;;;;4.65;2.10;;;12.70;99.90;;;;;;4979702;28;20018;-80
2022/12/31 00:15:41;;;;;;;2.78;1.30;;;12.70;99.90;;;;;;4995795;28;20034;-80
2022/12/31 00:18:07;;;;;;;3.78;1.10;;;12.70;99.90;;;;;;4996222;28;20084;-79
2022/12/31 00:20:33;;;;;;;2.50;0.60;;;12.70;99.90;;;;;;5012016;28;20119;-79
2022/12/31 00:22:58;;;;;;;2.03;0.63;;;12.70;99.90;;;;;;4995830;28;20099;-79
2022/12/31 00:25:24;;;;;;;2.00;0.60;;;12.60;99.90;;;;;;5011955;28;20417;-80
2022/12/31 00:27:50;;;;;;;1.63;0.60;;;12.60;99.90;;;;;;5011973;28;20022;-79
2022/12/31 00:30:16;;;;;;;2.03;0.63;;;12.50;99.90;;;;;;5013560;28;20018;-78
2022/12/31 00:32:42;;;;;;;4.18;0.50;;;12.50;99.90;;;;;;5012200;28;20045;-77
2022/12/31 00:35:08;;;;;;;2.95;0.70;;;12.40;99.90;;;;;;4995532;28;20441;-77
2022/12/31 00:37:33;;;;;;;3.60;0.68;;;12.40;99.90;;;;;;4995676;28;20026;-77
2022/12/31 00:39:59;;;;;;;4.30;0.75;;;12.40;99.90;;;;;;4995681;28;20033;-77
2022/12/31 00:42:25;;;;;;;2.40;0.90;;;12.40;99.90;;;;;;4995845;28;20399;-78
2022/12/31 00:44:50;;;;;;;4.32;1.00;;;12.40;99.90;;;;;;4999659;28;20470;-79
2022/12/31 00:47:16;;;;;;;1.70;0.85;;;12.40;99.90;;;;;;4999716;28;20324;-79
2022/12/31 00:49:42;;;;;;;3.42;0.90;;;12.40;99.90;;;;;;5015949;28;20025;-78
2022/12/31 00:52:07;;;;;;;3.53;0.90;;;12.30;99.90;;;;;;4983308;28;20144;-78
2022/12/31 00:54:33;;;;;;;4.70;1.10;;;12.30;99.90;;;;;;5015583;28;20018;-78
2022/12/31 00:56:59;;;;;;;3.67;1.20;;;12.30;99.90;;;;;;4999447;28;20101;-78
2022/12/31 00:59:24;;;;;;;4.75;1.33;;;12.30;99.90;;;;;;4999231;28;20096;-78
2022/12/31 01:01:50;;;;;;;4.15;1.92;;;12.20;99.90;;;;;;4999289;28;20025;-79
2022/12/31 01:04:19;;;;;;;3.53;1.75;;;12.20;99.90;;;;;;4999357;28;20030;-79
2022/12/31 01:06:45;;;;;;;5.07;2.45;;;12.20;99.90;;;;;;5015425;28;20549;-79
2022/12/31 01:09:13;;;;;;;4.60;2.40;;;12.10;99.90;;;;;;4999006;28;20026;-79
2022/12/31 01:11:39;;;;;;;5.50;2.70;;;12.10;99.90;;;;;;4983018;28;20026;-79
2022/12/31 01:14:11;;;;;;;4.70;2.28;;;12.10;99.90;;;;;;5015215;28;20473;-78
2022/12/31 01:16:40;;;;;;;7.18;2.55;;;12.10;99.90;;;;;;5015275;28;20109;-79
2022/12/31 01:19:09;;;;;;;6.80;2.75;;;12.10;99.90;;;;;;5015361;28;20029;-79
2022/12/31 01:21:37;;;;;;;7.07;2.80;;;12.10;99.90;;;;;;5015185;28;20382;-79
2022/12/31 01:24:03;;;;;;;5.10;2.10;;;12.00;99.90;;;;;;5015189;28;20470;-78
2022/12/31 01:26:29;;;;;;;5.78;2.30;;;12.00;99.90;;;;;;4998774;28;20030;-78
2022/12/31 01:28:55;;;;;;;5.13;2.05;;;12.00;99.90;;;;;;5016360;28;20026;-78
2022/12/31 01:31:22;;;;;;;6.07;2.03;;;12.00;99.90;;;;;;5015080;28;20505;-78
2022/12/31 01:33:48;;;;;;;4.57;2.03;;;12.00;99.90;;;;;;5014926;28;20029;-77
2022/12/31 01:36:20;;;;;;;6.85;1.65;;;12.00;99.90;;;;;;5014911;28;20022;-77
2022/12/31 01:38:46;;;;;;;4.95;2.03;;;12.00;99.90;;;;;;5016105;28;20105;-77
2022/12/31 01:41:20;;;;;;;6.10;2.20;;;11.90;99.90;;;;;;5014994;28;20096;-77
2022/12/31 01:43:50;;;;;;;5.43;2.05;;;12.00;99.90;;;;;;5014799;28;20022;-78
2022/12/31 01:46:36;;;;;;;4.18;1.65;;;11.90;99.90;;;;;;5014695;28;20021;-77
2022/12/31 01:49:17;;;;;;;3.83;1.58;;;11.90;99.90;;;;;;5014544;28;20010;-77
2022/12/31 01:51:47;;;;;;;4.47;1.60;;;11.90;99.90;;;;;;5014895;28;20025;-77
2022/12/31 01:54:17;;;;;;;5.28;1.80;;;11.90;99.90;;;;;;5014122;28;20022;-77
2022/12/31 01:56:46;;;;;;;5.30;2.17;;;12.00;99.90;;;;;;5014507;28;20022;-77
2022/12/31 01:59:16;;;;;;;3.83;1.88;;;11.90;99.90;;;;;;5014476;28;20026;-77
2022/12/31 02:01:41;;;;;;;4.88;2.13;;;12.00;99.90;;;;;;5015680;28;20022;-77
2022/12/31 02:04:10;;;;;;;5.95;1.98;;;11.90;99.90;;;;;;5014465;28;20517;-77
2022/12/31 02:07:01;;;;;;;6.00;1.92;;;12.00;99.90;;;;;;5014065;28;20140;-84
2022/12/31 02:09:27;;;;;;;5.05;2.10;;;12.00;99.90;;;;;;5014272;28;20377;-84
2022/12/31 02:11:53;;;;;;;8.00;2.40;;;11.90;99.90;;;;;;4998158;28;20034;-84
2022/12/31 02:14:37;;;;;;;8.98;2.67;;;12.00;99.90;;;;;;5015490;28;20024;-84
2022/12/31 02:17:20;;;;;;;4.78;2.30;;;11.90;99.90;;;;;;5030864;28;20084;-84
2022/12/31 02:20:05;;;;;;;7.57;2.80;;;12.00;99.90;;;;;;5015358;28;20104;-84
2022/12/31 02:22:44;;;;;;;9.40;3.10;;;11.90;99.90;;;;;;5030516;28;20030;-84
2022/12/31 02:25:31;;;;;;;4.32;1.98;;;11.90;99.90;;;;;;5014073;28;20057;-84
2022/12/31 02:28:24;;;;;;;5.65;1.70;;;11.90;99.90;;;;;;5015259;28;20072;-84
2022/12/31 02:30:56;;;;;;;6.85;2.45;;;11.90;99.90;;;;;;5030601;28;20033;-84
2022/12/31 02:33:25;;;;;;;6.85;1.92;;;11.90;99.90;;;;;;5014017;28;20022;-84
2022/12/31 02:36:05;;;;;;;7.25;1.80;;;11.90;99.90;;;;;;5013995;28;20470;-84
2022/12/31 02:38:39;;;;;;;5.82;1.65;;;11.90;99.90;;;;;;5013774;28;20041;-84
2022/12/31 02:41:10;;;;;;;3.35;1.50;;;11.90;99.90;;;;;;5013651;28;20022;-84
2022/12/31 02:43:44;;;;;;;5.03;1.50;;;11.80;99.90;;;;;;5013900;28;20033;-85
2022/12/31 02:46:31;;;;;;;3.90;1.55;;;11.90;99.90;;;;;;4998482;28;20035;-84
2022/12/31 02:49:11;;;;;;;3.60;1.42;;;11.90;99.90;;;;;;5013605;28;20040;-77
2022/12/31 02:51:59;;;;;;;5.28;1.75;;;11.90;99.90;;;;;;5013550;28;20025;-77
2022/12/31 02:54:46;;;;;;;3.95;1.60;;;11.90;99.90;;;;;;5013361;28;20080;-77
2022/12/31 02:57:24;;;;;;;4.60;1.60;;;11.90;99.90;;;;;;5029963;28;20030;-77
2022/12/31 03:02:45;;;;;;;4.47;1.65;;;11.80;99.90;;;;;;5014733;28;20037;-77
2022/12/31 03:05:13;;;;;;;5.43;2.00;;;11.80;99.90;;;;;;5013295;28;20393;-77
2022/12/31 03:07:40;;;;;;;6.10;1.88;;;11.80;99.90;;;;;;5011987;28;20045;-84
2022/12/31 03:10:06;;;;;;;4.72;1.73;;;11.80;99.90;;;;;;5013304;28;20474;-84
2022/12/31 03:12:45;;;;;;;3.75;1.77;;;11.80;99.90;;;;;;5013145;28;20084;-84
2022/12/31 03:15:21;;;;;;;4.50;1.75;;;11.80;99.90;;;;;;5013153;28;20033;-84
2022/12/31 03:17:53;;;;;;;4.65;1.77;;;11.80;99.90;;;;;;5014364;28;20022;-84
2022/12/31 03:23:26;;;;;;;4.65;1.67;;;11.70;99.90;;;;;;4992694;28;20165;-84
2022/12/31 03:25:52;;;;;;;3.13;1.38;;;11.70;99.90;;;;;;4992282;28;20053;-83
2022/12/31 03:28:20;;;;;;;5.55;1.63;;;11.70;99.90;;;;;;5002292;28;20430;-84
2022/12/31 03:30:49;;;;;;;5.13;1.50;;;11.70;99.90;;;;;;5014143;28;20022;-84
2022/12/31 03:33:15;;;;;;;4.18;1.25;;;11.70;99.90;;;;;;5014287;28;20076;-84
2022/12/31 03:35:43;;;;;;;9.20;2.10;;;11.70;99.90;;;;;;5012806;28;20014;-84
2022/12/31 03:38:09;;;;;;;5.60;2.42;;;11.60;99.90;;;;;;4996591;28;20049;-84
2022/12/31 03:40:40;;;;;;;5.93;2.00;;;11.70;99.90;;;;;;5014090;28;20072;-84
2022/12/31 03:43:06;;;;;;;7.10;2.65;;;11.70;99.90;;;;;;5013885;28;20067;-84
2022/12/31 03:45:33;;;;;;;10.38;2.50;;;11.70;99.90;;;;;;5012639;28;20061;-84
2022/12/31 03:48:00;;;;;;;6.80;2.63;;;11.70;99.90;;;;;;5012730;28;20030;-84
2022/12/31 03:50:25;;;;;;;11.02;3.00;;;11.70;99.90;;;;;;4996438;28;20160;-84
2022/12/31 03:52:51;;;;;;;8.77;3.17;;;11.70;99.90;;;;;;5012805;28;20485;-84
2022/12/31 03:55:17;;;;;;;9.40;3.65;;;11.60;99.90;;;;;;4996282;28;20030;-84
2022/12/31 03:57:43;;;;;;;11.95;4.47;;;11.70;99.90;;;;;;5014607;28;20033;-84
2022/12/31 04:00:12;;;;;;;14.73;4.18;;;11.70;99.90;;;;;;4999883;28;20048;-84
2022/12/31 04:02:38;;;;;;;14.07;5.15;;;11.70;99.90;;;;;;5016546;28;20025;-84
2022/12/31 04:05:04;;;;;;;15.65;5.75;;;11.70;99.90;;;;;;4997959;28;20030;-84
2022/12/31 04:07:30;;;;;;;15.55;5.63;;;11.70;99.90;;;;;;5013088;28;20132;-84
2022/12/31 04:09:56;;;;;;;14.98;6.10;;;11.70;99.90;;;;;;5013141;28;20109;-84
2022/12/31 04:12:22;;;;;;;12.43;5.22;;;11.70;99.90;;;;;;5013089;28;20026;-84
2022/12/31 04:14:48;;;;;;;14.48;5.63;;;11.70;99.90;;;;;;5012265;28;20029;-83
2022/12/31 04:17:14;;;;;;;13.95;5.82;;;11.70;99.90;;;;;;5012005;28;20390;-84
2022/12/31 04:19:39;;;;;;;12.57;5.20;;;11.80;99.90;;;;;;5028734;28;20030;-84
2022/12/31 04:22:05;;;;;;;11.70;5.00;;;11.80;99.90;;;;;;4995799;28;20030;-84
2022/12/31 04:24:31;;;;;;;11.68;5.30;;;11.80;99.90;;;;;;4995932;28;20037;-84
2022/12/31 04:26:56;;;;;;;15.73;4.90;;;11.80;99.90;;;;;;4995857;28;20034;-84
2022/12/31 04:29:22;;;;;;;12.00;5.30;;;11.80;99.90;;;;;;5013266;28;20037;-84
2022/12/31 04:31:48;;;;;;;10.32;4.35;;;11.80;99.90;;;;;;4979641;28;20080;-84
2022/12/31 04:34:14;;;;;;;15.40;5.68;;;11.80;99.90;;;;;;4979851;28;20429;-84
2022/12/31 04:36:39;;;;;;;10.50;4.40;;;11.80;99.90;;;;;;4995706;28;20029;-84
2022/12/31 04:39:05;;;;;;;12.48;5.07;;;11.80;99.90;;;;;;4995933;28;20061;-84
2022/12/31 04:41:30;;;;;;;11.63;4.53;;;11.80;99.90;;;;;;4979673;28;20030;-85
2022/12/31 04:43:58;;;;;;;13.07;5.00;;;11.80;99.90;;;;;;5011900;28;20040;-85
2022/12/31 04:46:26;;;;;;;11.15;4.30;;;11.80;99.90;;;;;;4979474;28;20034;-85
2022/12/31 04:48:53;;;;;;;11.02;4.20;;;11.80;99.90;;;;;;5011976;28;20068;-85
2022/12/31 04:51:19;;;;;;;11.23;4.55;;;11.90;99.90;;;;;;5011997;28;20026;-85
2022/12/31 04:53:45;;;;;;;10.57;4.30;;;11.80;99.90;;;;;;5011992;28;20076;-84
2022/12/31 04:56:11;;;;;;;10.55;4.45;;;11.90;99.90;;;;;;4995686;28;20038;-85
2022/12/31 04:58:37;;;;;;;10.57;4.43;;;11.80;99.90;;;;;;5013133;28;20034;-84
2022/12/31 05:01:04;;;;;;;11.68;4.10;;;11.80;99.90;;;;;;5012290;28;20113;-85
2022/12/31 05:03:30;;;;;;;10.10;4.45;;;11.90;99.90;;;;;;4995786;28;20397;-84
2022/12/31 05:06:07;;;;;;;6.47;3.00;;;11.90;99.90;;;;;;4979260;28;20145;-84
2022/12/31 05:08:33;;;;;;;8.95;3.20;;;11.90;99.90;;;;;;5012004;28;20058;-84
2022/12/31 05:10:59;;;;;;;7.85;3.20;;;11.90;99.90;;;;;;4995555;28;20482;-84
2022/12/31 05:13:26;;;;;;;6.10;2.90;;;11.90;99.90;;;;;;4995951;28;20030;-84
2022/12/31 05:15:52;;;;;;;6.63;2.70;;;11.90;99.90;;;;;;5016645;28;20541;-85
2022/12/31 05:18:18;;;;;;;5.72;2.50;;;11.90;99.90;;;;;;5031260;28;20122;-84
2022/12/31 05:20:44;;;;;;;4.70;2.10;;;11.90;99.90;;;;;;5013516;28;20393;-84
2022/12/31 05:23:09;;;;;;;3.83;1.80;;;11.90;99.90;;;;;;5029037;28;20072;-84
2022/12/31 05:25:35;;;;;;;3.83;1.45;;;11.90;99.90;;;;;;5013879;28;20061;-85
2022/12/31 05:28:01;;;;;;;2.83;1.10;;;11.90;99.90;;;;;;5030875;28;20030;-85
2022/12/31 05:30:26;;;;;;;3.60;1.25;;;11.90;99.90;;;;;;5015298;28;20030;-84
2022/12/31 05:32:52;;;;;;;2.63;1.17;;;11.90;99.90;;;;;;5017027;28;20083;-85
2022/12/31 05:35:18;;;;;;;2.78;0.90;;;11.90;99.90;;;;;;5017936;28;20057;-85
2022/12/31 05:37:44;;;;;;;1.83;0.80;;;12.00;99.90;;;;;;5018430;28;20034;-84
2022/12/31 05:40:10;;;;;;;4.65;0.80;;;11.90;99.90;;;;;;5034879;28;20034;-85
2022/12/31 05:42:36;;;;;;;2.85;0.80;;;12.00;99.90;;;;;;5018430;28;20057;-84
2022/12/31 05:45:02;;;;;;;2.58;0.95;;;12.00;99.90;;;;;;5018024;28;20053;-84
2022/12/31 05:47:27;;;;;;;1.90;0.80;;;12.00;99.90;;;;;;5016628;28;20389;-85
2022/12/31 05:49:53;;;;;;;1.75;0.80;;;12.00;99.90;;;;;;5029938;28;20037;-84
2022/12/31 05:52:20;;;;;;;1.60;0.75;;;12.00;99.90;;;;;;5033764;28;20037;-84
2022/12/31 05:54:45;;;;;;;1.88;0.77;;;12.00;99.90;;;;;;5034475;28;20029;-84
2022/12/31 05:57:11;;;;;;;1.88;0.70;;;12.00;99.90;;;;;;5018121;28;20474;-84
2022/12/31 05:59:37;;;;;;;1.65;0.60;;;12.00;99.90;;;;;;5034335;28;20481;-85
2022/12/31 06:02:03;;;;;;;1.63;0.60;;;12.00;99.90;;;;;;5034201;28;20030;-84
2022/12/31 06:04:28;;;;;;;2.00;0.65;;;12.00;99.90;;;;;;5017806;28;20057;-84
2022/12/31 06:06:54;;;;;;;1.65;0.70;;;12.10;99.90;;;;;;5033934;28;20053;-84
2022/12/31 06:09:20;;;;;;;1.33;0.50;;;12.00;99.90;;;;;;5034173;28;20028;-85
2022/12/31 06:11:46;;;;;;;1.75;0.60;;;12.10;99.90;;;;;;5035540;28;20026;-85
2022/12/31 06:14:12;;;;;;;2.28;0.80;;;12.10;99.90;;;;;;5034805;28;20469;-85
2022/12/31 06:16:41;;;;;;;1.60;0.75;;;12.10;99.90;;;;;;5035366;28;20034;-84
2022/12/31 06:19:07;;;;;;;2.10;0.70;;;12.10;99.90;;;;;;5017503;28;20037;-84
2022/12/31 06:21:33;;;;;;;2.00;0.85;;;12.10;99.90;;;;;;5033995;28;20033;-84
2022/12/31 06:23:59;;;;;;;2.17;0.75;;;12.10;99.90;;;;;;5017524;28;20496;-85
2022/12/31 06:26:25;;;;;;;1.92;0.70;;;12.10;99.90;;;;;;5033914;28;20091;-85
2022/12/31 06:28:51;;;;;;;2.47;0.80;;;12.10;99.90;;;;;;5033175;28;20072;-85
2022/12/31 06:31:17;;;;;;;1.88;0.75;;;12.10;99.90;;;;;;5017183;28;20539;-84
2022/12/31 06:33:43;;;;;;;2.05;0.70;;;12.20;99.90;;;;;;5033341;28;20069;-84
2022/12/31 06:36:13;;;;;;;2.33;0.60;;;12.20;99.90;;;;;;5001946;28;20535;-85
2022/12/31 06:38:40;;;;;;;1.90;0.50;;;12.20;99.90;;;;;;5015075;28;20038;-84
2022/12/31 06:41:07;;;;;;;2.67;0.50;;;12.20;99.90;;;;;;5023681;28;20041;-86
2022/12/31 06:43:33;;;;;;;1.23;0.60;;;12.30;99.90;;;;;;5032111;28;20036;-85
2022/12/31 06:46:03;;;;;;;1.75;0.70;;;12.30;99.90;;;;;;5028496;28;20473;-85
2022/12/31 06:48:29;;;;;;;1.13;0.50;;;12.40;99.90;;;;;;5033471;28;20524;-83
2022/12/31 06:50:55;;;;;;;1.50;0.60;;;12.50;99.90;;;;;;5029267;28;20033;-78
2022/12/31 06:53:21;;;;;;;2.08;0.70;;;12.50;99.90;;;;;;4994952;28;20087;-78
2022/12/31 06:55:48;;;;;;;2.42;0.70;;;12.60;99.90;;;;;;5028003;28;20034;-78
2022/12/31 06:58:14;;;;;;;1.40;0.60;;;12.60;99.90;;;;;;4998735;28;20038;-78
2022/12/31 07:00:53;;;;;;;1.00;0.40;;;12.70;99.90;;;;;;5015870;28;20028;-79
2022/12/31 07:03:38;;;;;;;3.55;0.60;;;12.80;99.90;;;;;;5031146;28;20381;-79
2022/12/31 07:06:38;;;;;;;1.90;0.70;;;12.80;99.90;;;;;;5031493;28;20041;-79
2022/12/31 07:09:10;;;;;;;1.70;0.60;;;12.90;99.90;;;;;;5032370;28;20029;-80
2022/12/31 07:11:59;;;;;;;1.90;0.80;;;12.90;99.90;;;;;;5031486;28;20022;-79
2022/12/31 07:14:43;;;;;;;2.47;0.90;;;13.00;99.90;;;;;;5032387;28;20056;-78
2022/12/31 07:17:32;;;;;;;2.28;0.95;;;13.00;99.90;;;;;;5033391;28;20021;-79
2022/12/31 07:20:16;;;;;;;2.40;0.90;;;13.00;99.90;;;;;;5029696;28;20029;-79
2022/12/31 07:22:44;;;;;;;2.17;0.85;;;13.00;99.90;;;;;;5013794;28;20022;-79
2022/12/31 07:25:17;;;;;;;2.03;0.95;;;13.00;99.90;;;;;;5032456;28;20013;-79
2022/12/31 07:28:20;;;;;;;3.10;1.03;;;13.10;99.90;;;;;;5022757;28;20120;-80
2022/12/31 07:31:29;;;;;;;4.20;1.17;;;13.10;99.90;;;;;;5032932;28;20470;-79
2022/12/31 07:34:20;;;;;;;2.30;1.00;;;13.10;99.90;;;;;;5022588;28;20041;-79
2022/12/31 07:36:59;;;;;;;4.00;1.10;;;13.10;99.90;;;;;;5031125;28;20036;-79
2022/12/31 07:39:53;;;;;;;3.40;0.95;;;13.10;99.90;;;;;;5033196;28;20030;-80
2022/12/31 07:42:39;;;;;;;3.47;1.25;;;13.20;99.90;;;;;;5029726;28;20444;-79
2022/12/31 07:45:24;;;;;;;4.03;1.33;;;13.10;99.90;;;;;;5029069;28;20035;-79
2022/12/31 07:47:49;;;;;;;6.55;1.48;;;13.20;99.90;;;;;;5046616;28;20079;-79
2022/12/31 07:50:17;;;;;;;5.65;1.60;;;13.20;99.90;;;;;;5015313;28;20025;-79
2022/12/31 07:52:44;;;;;;;5.80;2.10;;;13.20;99.90;;;;;;5031170;28;20490;-80
2022/12/31 07:55:10;;;;;;;4.38;1.90;;;13.20;99.90;;;;;;5031709;28;20137;-80
2022/12/31 07:58:00;;;;;;;2.92;1.65;;;13.20;99.90;;;;;;5031750;28;20019;-79
2022/12/31 08:00:28;;;;;;;6.45;1.98;;;13.20;99.90;;;;;;5025885;28;20034;-78
2022/12/31 08:03:32;;;;;;;5.47;1.73;;;13.20;99.90;;;;;;5032888;28;20100;-79
2022/12/31 08:06:28;;;;;;;4.88;1.42;;;13.20;99.90;;;;;;5011698;28;20109;-78
2022/12/31 08:09:03;;;;;;;4.88;1.25;;;13.30;99.90;;;;;;5012401;28;20066;-77
2022/12/31 08:11:57;;;;;;;4.35;1.15;;;13.30;99.90;;;;;;5012264;28;20501;-77
2022/12/31 08:14:23;;;;;;;5.82;1.52;;;13.30;99.90;;;;;;5017992;28;20371;-78
2022/12/31 08:16:49;;;;;;;4.70;1.27;;;13.30;99.90;;;;;;5031996;28;20037;-78
2022/12/31 08:19:24;;;;;;;1.65;0.60;;;13.30;99.90;;;;;;5031678;28;20025;-79
2022/12/31 08:22:18;;;;;;;3.50;0.70;;;13.30;99.90;;;;;;5029628;28;20048;-77
2022/12/31 08:25:08;;;;;;;1.42;0.57;;;13.20;99.90;;;;;;5031860;28;20026;-78
2022/12/31 08:27:40;;;;;;;4.93;0.70;;;13.10;99.90;;;;;;5031688;28;20532;-77
2022/12/31 08:30:13;;;;;;;2.83;0.57;;;13.00;99.90;;;;;;5032065;28;20022;-77
2022/12/31 08:32:58;;;;;;;2.83;0.60;;;12.90;99.90;;;;;;5030993;28;20454;-77
2022/12/31 08:35:44;;;;;;;2.50;0.60;;;12.90;99.90;;;;;;5030024;28;20044;-77
2022/12/31 08:38:28;;;;;;;2.17;0.50;;;12.80;99.90;;;;;;5031274;28;20026;-77
2022/12/31 08:41:15;;;;;;;1.97;0.50;;;12.80;99.90;;;;;;5032966;28;20029;-78
2022/12/31 08:43:49;;;;;;;2.70;0.50;;;12.80;99.90;;;;;;5031406;28;20056;-78
2022/12/31 08:46:39;;;;;;;3.85;0.57;;;12.80;99.90;;;;;;5030758;28;20470;-76
2022/12/31 08:49:07;;;;;;;2.22;0.88;;;12.80;99.90;;;;;;5047582;28;20113;-77
2022/12/31 08:51:33;;;;;;;2.67;0.70;;;12.80;99.90;;;;;;5015099;28;20029;-77
2022/12/31 08:53:59;;;;;;;4.07;1.05;;;12.80;99.90;;;;;;4998743;28;20433;-77
2022/12/31 08:56:32;;;;;;;2.15;0.85;;;12.80;99.90;;;;;;5031504;28;20057;-77
2022/12/31 08:59:11;;;;;;;3.90;0.95;;;12.80;99.90;;;;;;5031582;28;20061;-77
2022/12/31 09:01:54;;;;;;;9.90;4.32;;;12.80;99.90;;;;;;5031517;28;20120;-77
2022/12/31 09:04:26;;;;;;;111.53;63.03;;;12.80;99.90;;;;;;5031330;28;20037;-77
2022/12/31 09:07:01;;;;;;;149.93;91.10;;;12.80;99.90;;;;;;5034564;28;20038;-78
2022/12/31 09:10:00;;;;;;;186.68;106.78;;;12.90;99.90;;;;;;5034657;28;20021;-77
2022/12/31 09:12:39;;;;;;;114.07;63.70;;;12.80;99.90;;;;;;5034221;28;20055;-77
2022/12/31 09:15:19;;;;;;;101.25;59.92;;;12.80;99.90;;;;;;5035031;28;20136;-77
2022/12/31 09:17:47;;;;;;;69.47;45.15;;;12.90;99.90;;;;;;5036047;28;20014;-77
2022/12/31 09:20:29;;;;;;;44.53;27.35;;;12.90;99.90;;;;;;5035830;28;20079;-77
2022/12/31 09:22:56;;;;;;;50.10;26.80;;;12.90;99.90;;;;;;5035912;28;20026;-76
2022/12/31 09:25:23;;;;;;;31.20;18.67;;;12.90;99.90;;;;;;5034796;28;20052;-76
2022/12/31 09:28:09;;;;;;;129.90;74.45;;;12.90;99.90;;;;;;5018168;28;20478;-76
2022/12/31 09:30:58;;;;;;;105.10;59.83;;;13.00;99.90;;;;;;5034690;28;20045;-76
2022/12/31 09:33:32;;;;;;;87.63;44.72;;;13.00;99.90;;;;;;5034398;28;20029;-76
2022/12/31 09:36:05;;;;;;;101.28;54.80;;;13.00;99.90;;;;;;5034789;28;20026;-76
2022/12/31 09:38:44;;;;;;;113.38;57.33;;;13.10;99.90;;;;;;5034593;28;20025;-84
2022/12/31 09:41:19;;;;;;;83.00;44.20;;;13.10;99.90;;;;;;5035830;28;20017;-83
2022/12/31 09:44:08;;;;;;;62.47;33.90;;;13.10;99.90;;;;;;5034380;28;20185;-84
2022/12/31 09:47:03;;;;;;;41.22;23.85;;;13.20;99.90;;;;;;5034045;28;20155;-84
2022/12/31 09:50:02;;;;;;;30.95;17.55;;;13.20;99.90;;;;;;5034315;28;20018;-82
2022/12/31 09:52:49;;;;;;;24.38;12.20;;;13.30;99.90;;;;;;5034408;28;20025;-83
2022/12/31 09:55:30;;;;;;;16.10;9.50;;;13.40;99.90;;;;;;5034849;28;20474;-83
2022/12/31 09:58:30;;;;;;;13.80;6.90;;;13.40;99.90;;;;;;5035481;28;20037;-83
2022/12/31 10:01:00;;;;;;;12.82;6.20;;;13.50;99.90;;;;;;5034078;28;20033;-84
2022/12/31 10:03:44;;;;;;;10.43;4.05;;;13.60;99.90;;;;;;5035558;28;20076;-83
2022/12/31 10:06:22;;;;;;;14.23;6.53;;;13.70;99.90;;;;;;5033945;28;20548;-83
2022/12/31 10:09:18;;;;;;;11.13;4.15;;;13.80;99.90;;;;;;5033844;28;20076;-84
2022/12/31 10:12:11;;;;;;;9.10;3.70;;;13.80;99.90;;;;;;5035672;28;20026;-84
2022/12/31 10:14:55;;;;;;;9.65;3.80;;;13.80;99.90;;;;;;5033763;28;20021;-85
2022/12/31 10:17:55;;;;;;;6.45;3.40;;;13.90;99.90;;;;;;5034810;28;20416;-85
2022/12/31 10:20:50;;;;;;;7.88;3.85;;;13.90;99.90;;;;;;5034878;28;20429;-86
2022/12/31 10:23:25;;;;;;;27.48;15.60;;;13.90;99.90;;;;;;5033611;28;20124;-86
2022/12/31 10:26:11;;;;;;;51.03;28.30;;;14.00;99.90;;;;;;5033571;28;20049;-86
2022/12/31 10:28:59;;;;;;;42.08;26.15;;;14.10;99.90;;;;;;5034009;28;20527;-84
2022/12/31 10:31:49;;;;;;;25.75;16.65;;;14.10;99.90;;;;;;5033459;28;20029;-84
2022/12/31 10:34:30;;;;;;;17.63;10.57;;;14.10;99.90;;;;;;5033517;28;20381;-85
2022/12/31 10:37:18;;;;;;;14.05;6.32;;;14.20;99.90;;;;;;5033393;28;20021;-85
2022/12/31 10:40:23;;;;;;;10.25;4.00;;;14.20;99.90;;;;;;5034036;28;20037;-85
2022/12/31 10:43:20;;;;;;;5.82;2.72;;;14.20;99.90;;;;;;5034826;28;20029;-86
2022/12/31 10:46:07;;;;;;;11.20;4.40;;;14.20;99.90;;;;;;5035010;28;20075;-85
2022/12/31 10:49:03;;;;;;;19.02;11.18;;;14.30;99.90;;;;;;5033557;28;20087;-84
2022/12/31 10:52:23;;;;;;;11.82;6.97;;;14.30;99.90;;;;;;5033488;28;20030;-85
2022/12/31 10:55:02;;;;;;;12.73;5.13;;;14.30;99.90;;;;;;5032411;28;20038;-85
2022/12/31 10:57:49;;;;;;;12.85;6.38;;;14.30;99.90;;;;;;5034810;28;20029;-84
2022/12/31 11:00:22;;;;;;;12.65;5.63;;;14.30;99.90;;;;;;5034579;28;20096;-85
2022/12/31 11:03:00;;;;;;;11.38;4.53;;;14.30;99.90;;;;;;5016800;28;20024;-85
2022/12/31 11:05:43;;;;;;;10.25;3.67;;;14.30;99.90;;;;;;5032942;28;20083;-84
2022/12/31 11:08:21;;;;;;;7.38;2.63;;;14.30;99.90;;;;;;5031716;28;20386;-85
2022/12/31 11:11:05;;;;;;;6.38;2.25;;;14.40;99.90;;;;;;5019653;28;20117;-84
2022/12/31 11:14:08;;;;;;;5.93;1.92;;;14.40;99.90;;;;;;5037717;28;20034;-85
2022/12/31 11:16:39;;;;;;;8.10;2.70;;;14.40;99.90;;;;;;5032929;28;20036;-85
2022/12/31 11:19:18;;;;;;;6.40;2.30;;;14.40;99.90;;;;;;5031703;28;20045;-85
2022/12/31 11:21:51;;;;;;;8.73;2.50;;;14.40;99.90;;;;;;5033461;28;20040;-85
2022/12/31 11:24:26;;;;;;;6.60;2.27;;;14.40;99.90;;;;;;5032770;28;20029;-84
2022/12/31 11:26:54;;;;;;;5.55;1.75;;;14.40;99.90;;;;;;5032666;28;20342;-85
2022/12/31 11:29:44;;;;;;;6.55;1.77;;;14.40;99.90;;;;;;5035071;28;20036;-84
2022/12/31 11:32:36;;;;;;;9.35;4.30;;;14.40;99.90;;;;;;5035684;28;20040;-84
2022/12/31 11:35:17;;;;;;;8.43;3.25;;;14.40;99.90;;;;;;5033748;28;20055;-84
2022/12/31 11:37:51;;;;;;;13.32;4.57;;;14.40;99.90;;;;;;5038811;28;20151;-84
2022/12/31 11:40:34;;;;;;;9.50;3.28;;;14.50;99.90;;;;;;5051634;28;20435;-85
2022/12/31 11:43:45;;;;;;;23.50;11.73;;;14.50;99.90;;;;;;5038020;28;20060;-84
2022/12/31 11:46:38;;;;;;;16.92;7.57;;;14.50;99.90;;;;;;5028448;28;20041;-85
2022/12/31 11:49:11;;;;;;;13.15;5.32;;;14.50;99.90;;;;;;5015241;28;20117;-83
2022/12/31 11:51:58;;;;;;;11.45;3.75;;;14.50;99.90;;;;;;5011572;28;20040;-84
2022/12/31 11:54:56;;;;;;;10.23;2.55;;;14.50;99.90;;;;;;5011094;28;20029;-85
2022/12/31 11:57:35;;;;;;;9.20;2.72;;;14.50;99.90;;;;;;5012972;28;20034;-84
2022/12/31 12:00:12;;;;;;;7.55;2.33;;;14.60;99.90;;;;;;5013761;28;20060;-85
2022/12/31 12:02:42;;;;;;;7.90;2.40;;;14.60;99.90;;;;;;5011403;28;20147;-85
2022/12/31 12:05:12;;;;;;;13.50;7.65;;;14.60;99.90;;;;;;5011924;28;20030;-85
2022/12/31 12:07:38;;;;;;;12.13;4.95;;;14.60;99.90;;;;;;4995674;28;20050;-84
2022/12/31 12:10:31;;;;;;;10.85;3.80;;;14.60;99.90;;;;;;4995165;28;20018;-84
2022/12/31 12:12:58;;;;;;;12.23;4.57;;;14.70;99.90;;;;;;5011731;28;20417;-86
2022/12/31 12:15:31;;;;;;;11.23;3.25;;;14.70;99.90;;;;;;5034756;28;20401;-84
2022/12/31 12:18:05;;;;;;;6.47;2.10;;;14.80;99.90;;;;;;5011602;28;20387;-84
2022/12/31 12:20:34;;;;;;;17.10;9.80;;;14.80;99.90;;;;;;5012092;28;20485;-86
2022/12/31 12:23:02;;;;;;;20.60;10.32;;;14.80;99.90;;;;;;5032223;28;20037;-85
2022/12/31 12:25:39;;;;;;;16.17;6.55;;;14.80;99.90;;;;;;5031331;28;20033;-86
2022/12/31 12:28:26;;;;;;;9.95;4.68;;;14.80;99.90;;;;;;5031848;28;20033;-87
2022/12/31 12:31:01;;;;;;;13.27;6.38;;;14.90;99.90;;;;;;5032076;28;20049;-86
2022/12/31 12:33:30;;;;;;;25.20;12.40;;;14.90;99.90;;;;;;5031089;28;20028;-85
2022/12/31 12:36:14;;;;;;;14.68;7.60;;;14.90;99.90;;;;;;5032439;28;20474;-84
2022/12/31 12:38:40;;;;;;;;;;;14.80;99.90;;;;;;5032246;28;20028;-85
2022/12/31 12:41:19;;;;;;;17.38;6.15;;;14.80;99.90;;;;;;5034790;28;20339;-85
2022/12/31 12:43:45;;;;;;;12.93;4.68;;;14.80;99.90;;;;;;5034798;28;20108;-85
2022/12/31 12:46:29;;;;;;;11.30;5.40;;;14.80;99.90;;;;;;5035881;28;20077;-85
2022/12/31 12:48:55;;;;;;;;;;;14.80;99.90;;;;;;5035746;28;20022;-87
2022/12/31 12:51:39;;;;;;;19.13;9.30;;;14.70;99.90;;;;;;5035396;28;20275;-85
2022/12/31 12:54:19;;;;;;;19.25;7.03;;;14.70;99.90;;;;;;5035671;28;20025;-85
2022/12/31 12:57:06;;;;;;;11.80;6.18;;;14.70;99.90;;;;;;5035716;28;20132;-86
2022/12/31 12:59:44;;;;;;;10.13;4.43;;;14.70;99.90;;;;;;5034284;28;20037;-86
2022/12/31 13:02:32;;;;;;;30.42;15.50;;;14.70;99.90;;;;;;5036280;28;20029;-88
2022/12/31 13:05:18;;;;;;;18.92;10.30;;;14.70;99.90;;;;;;5035145;28;20088;-86
2022/12/31 13:08:15;;;;;;;15.65;7.57;;;14.70;99.90;;;;;;5036842;28;20085;-89
2022/12/31 13:10:58;;;;;;;13.52;4.18;;;14.80;99.90;;;;;;5035529;28;20038;-86
2022/12/31 13:14:02;;;;;;;10.57;3.78;;;14.80;99.90;;;;;;5035335;28;20107;-86
2022/12/31 13:16:39;;;;;;;13.55;4.05;;;14.80;99.90;;;;;;5024807;28;20474;-84
2022/12/31 13:19:20;;;;;;;11.15;3.40;;;14.80;99.90;;;;;;5034375;28;20021;-86
2022/12/31 13:22:21;;;;;;;8.40;3.20;;;14.80;99.90;;;;;;5034753;28;20481;-85
2022/12/31 13:24:54;;;;;;;7.95;2.50;;;14.80;99.90;;;;;;5023219;28;20113;-86
2022/12/31 13:27:43;;;;;;;9.30;3.00;;;14.90;99.90;;;;;;5033195;28;20017;-85